createdAt,value
2023-02-03T00:00:29.250Z,-0.51
2023-02-03T00:03:02.780Z,-0.56
2023-02-03T00:05:37.403Z,-0.60
2023-02-03T00:08:11.219Z,-0.63
2023-02-03T00:10:47.325Z,-0.68
2023-02-03T00:13:20.460Z,-0.74
2023-02-03T00:15:54.283Z,-0.80
2023-02-03T00:18:27.263Z,-0.85
2023-02-03T00:21:00.051Z,-0.95
2023-02-03T00:23:33.542Z,-0.98
2023-02-03T00:26:15.390Z,-0.99
2023-02-03T00:28:48.881Z,-1.03
2023-02-03T00:31:25.713Z,-1.04
2023-02-03T00:33:59.444Z,-1.06
2023-02-03T00:36:32.751Z,-1.09
2023-02-03T00:39:05.742Z,-1.13
2023-02-03T00:41:39.097Z,-1.19
2023-02-03T00:44:12.546Z,-1.26
2023-02-03T00:46:46.032Z,-1.30
2023-02-03T00:49:18.821Z,-1.36
2023-02-03T00:51:52.559Z,-1.39
2023-02-03T00:54:26.201Z,-1.42
2023-02-03T00:56:59.734Z,-1.44
2023-02-03T00:59:33.111Z,-1.43
2023-02-03T01:02:07.679Z,-1.41
2023-02-03T01:04:40.387Z,-1.39
2023-02-03T01:07:13.532Z,-1.35
2023-02-03T01:09:46.724Z,-1.30
2023-02-03T01:12:19.940Z,-1.26
2023-02-03T01:14:53.243Z,-1.25
2023-02-03T01:17:27.329Z,-1.22
2023-02-03T01:20:00.541Z,-1.18
2023-02-03T01:22:33.862Z,-1.13
2023-02-03T01:25:07.572Z,-1.07
2023-02-03T01:27:40.465Z,-1.05
2023-02-03T01:30:14.698Z,-1.03
2023-02-03T01:32:48.314Z,-1.02
2023-02-03T01:35:21.556Z,-0.97
2023-02-03T01:37:55.159Z,-0.97
2023-02-03T01:40:28.417Z,-0.96
2023-02-03T01:43:01.553Z,-0.96
2023-02-03T01:45:34.451Z,-0.95
2023-02-03T01:48:08.931Z,-0.94
2023-02-03T01:50:41.921Z,-0.94
2023-02-03T01:53:15.617Z,-0.96
2023-02-03T01:55:50.526Z,-0.97
2023-02-03T01:58:30.956Z,-0.99
2023-02-03T02:01:03.845Z,-1.01
2023-02-03T02:03:50.746Z,-1.05
2023-02-03T02:06:24.397Z,-1.08
2023-02-03T02:08:59.579Z,-1.12
2023-02-03T02:11:32.983Z,-1.16
2023-02-03T02:14:06.095Z,-1.20
2023-02-03T02:16:42.643Z,-1.22
2023-02-03T02:19:47.202Z,-1.24
2023-02-03T02:23:00.863Z,-1.25
2023-02-03T02:26:17.904Z,-1.25
2023-02-03T02:29:10.484Z,-1.29
2023-02-03T02:31:56.356Z,-1.34
2023-02-03T02:34:54.880Z,-1.36
2023-02-03T02:37:49.966Z,-1.37
2023-02-03T02:40:45.247Z,-1.41
2023-02-03T02:43:26.236Z,-1.39
2023-02-03T02:46:04.754Z,-1.41
2023-02-03T02:48:57.413Z,-1.42
2023-02-03T02:51:32.078Z,-1.43
2023-02-03T02:54:08.608Z,-1.42
2023-02-03T02:56:42.877Z,-1.43
2023-02-03T02:59:17.204Z,-1.41
2023-02-03T03:01:51.860Z,-1.39
2023-02-03T03:04:29.132Z,-1.38
2023-02-03T03:07:07.949Z,-1.39
2023-02-03T03:09:52.300Z,-1.39
2023-02-03T03:12:32.703Z,-1.37
2023-02-03T03:15:12.925Z,-1.35
2023-02-03T03:17:53.519Z,-1.38
2023-02-03T03:20:29.650Z,-1.42
2023-02-03T03:23:13.168Z,-1.47
2023-02-03T03:26:02.284Z,-1.46
2023-02-03T03:28:55.053Z,-1.46
2023-02-03T03:31:28.201Z,-1.47
2023-02-03T03:34:01.439Z,-1.48
2023-02-03T03:36:51.068Z,-1.48
2023-02-03T03:39:34.140Z,-1.48
2023-02-03T03:42:20.575Z,-1.49
2023-02-03T03:45:07.495Z,-1.51
2023-02-03T03:47:50.839Z,-1.49
2023-02-03T03:50:28.464Z,-1.47
2023-02-03T03:53:03.368Z,-1.44
2023-02-03T03:55:37.839Z,-1.38
2023-02-03T03:58:14.269Z,-1.36
2023-02-03T04:00:47.837Z,-1.30
2023-02-03T04:03:31.037Z,-1.26
2023-02-03T04:06:04.700Z,-1.21
2023-02-03T04:08:37.493Z,-1.20
2023-02-03T04:11:10.835Z,-1.16
2023-02-03T04:13:43.810Z,-1.11
2023-02-03T04:16:17.000Z,-1.07
2023-02-03T04:18:49.911Z,-1.04
2023-02-03T04:21:22.924Z,-1.03
2023-02-03T04:23:57.240Z,-0.95
2023-02-03T04:26:30.234Z,-0.92
2023-02-03T04:29:03.718Z,-0.91
2023-02-03T04:31:36.870Z,-0.89
2023-02-03T04:34:09.855Z,-0.91
2023-02-03T04:36:43.538Z,-0.89
2023-02-03T04:39:16.341Z,-0.86
2023-02-03T04:41:50.726Z,-0.85
2023-02-03T04:44:23.868Z,-0.83
2023-02-03T04:46:56.727Z,-0.85
2023-02-03T04:49:29.828Z,-0.88
2023-02-03T04:52:02.937Z,-0.89
2023-02-03T04:54:36.031Z,-0.92
2023-02-03T04:57:09.267Z,-0.93
2023-02-03T04:59:42.684Z,-0.94
2023-02-03T05:02:15.578Z,-0.94
2023-02-03T05:04:48.849Z,-0.97
2023-02-03T05:07:21.828Z,-1.00
2023-02-03T05:09:54.600Z,-1.04
2023-02-03T05:12:27.591Z,-1.01
2023-02-03T05:15:00.714Z,-1.00
2023-02-03T05:17:36.284Z,-0.96
2023-02-03T05:20:10.738Z,-0.92
2023-02-03T05:22:44.265Z,-0.92
2023-02-03T05:25:17.259Z,-0.91
2023-02-03T05:27:50.235Z,-0.88
2023-02-03T05:30:23.613Z,-0.87
2023-02-03T05:32:56.418Z,-0.86
2023-02-03T05:35:29.473Z,-0.86
2023-02-03T05:38:03.218Z,-0.82
2023-02-03T05:40:54.661Z,-0.77
2023-02-03T05:43:28.453Z,-0.78
2023-02-03T05:46:06.935Z,-0.76
2023-02-03T05:48:39.880Z,-0.68
2023-02-03T05:51:12.926Z,-0.61
2023-02-03T05:53:45.865Z,-0.54
2023-02-03T05:56:19.478Z,-0.46
2023-02-03T05:58:53.672Z,-0.39
2023-02-03T06:01:27.016Z,-0.37
2023-02-03T06:04:00.251Z,-0.34
2023-02-03T06:06:35.052Z,-0.29
2023-02-03T06:09:10.013Z,-0.26
2023-02-03T06:11:44.042Z,-0.27
2023-02-03T06:14:17.306Z,-0.28
2023-02-03T06:16:50.239Z,-0.26
2023-02-03T06:19:23.391Z,-0.24
2023-02-03T06:21:56.354Z,-0.19
2023-02-03T06:24:29.720Z,-0.19
2023-02-03T06:27:03.464Z,-0.20
2023-02-03T06:29:38.465Z,-0.18
2023-02-03T06:32:11.860Z,-0.16
2023-02-03T06:34:44.694Z,-0.11
2023-02-03T06:37:17.965Z,-0.05
2023-02-03T06:39:51.366Z,0.01
2023-02-03T06:42:24.491Z,0.06
2023-02-03T06:44:57.403Z,0.07
2023-02-03T06:47:30.743Z,0.07
2023-02-03T06:50:05.886Z,0.07
2023-02-03T06:52:39.175Z,0.05
2023-02-03T06:55:13.023Z,0.11
2023-02-03T06:57:48.387Z,0.15
2023-02-03T07:00:23.163Z,0.17
2023-02-03T07:02:58.584Z,0.24
2023-02-03T07:05:31.596Z,0.32
2023-02-03T07:08:04.479Z,0.38
2023-02-03T07:10:38.214Z,0.44
2023-02-03T07:13:11.693Z,0.53
2023-02-03T07:15:45.342Z,0.59
2023-02-03T07:18:35.977Z,0.67
2023-02-03T07:20:55.849Z,0.72
2023-02-03T07:23:28.647Z,0.78
2023-02-03T07:26:04.756Z,0.84
2023-02-03T07:28:38.231Z,0.88
2023-02-03T07:31:11.833Z,0.89
2023-02-03T07:33:45.431Z,0.88
2023-02-03T07:36:18.310Z,0.83
2023-02-03T07:38:51.850Z,0.83
2023-02-03T07:41:24.755Z,0.88
2023-02-03T07:43:57.888Z,0.95
2023-02-03T07:46:31.093Z,0.98
2023-02-03T07:49:05.767Z,1.00
2023-02-03T07:51:40.503Z,1.10
2023-02-03T07:54:13.488Z,1.16
2023-02-03T07:56:46.824Z,1.22
2023-02-03T07:59:19.931Z,1.24
2023-02-03T08:01:55.040Z,1.30
2023-02-03T08:04:28.697Z,1.32
2023-02-03T08:07:01.633Z,1.34
2023-02-03T08:09:35.148Z,1.32
2023-02-03T08:12:08.494Z,1.34
2023-02-03T08:14:42.674Z,1.33
2023-02-03T08:17:15.521Z,1.37
2023-02-03T08:19:48.600Z,1.42
2023-02-03T08:22:22.588Z,1.50
2023-02-03T08:24:55.520Z,1.55
2023-02-03T08:27:29.194Z,1.62
2023-02-03T08:30:02.306Z,1.67
2023-02-03T08:32:36.431Z,1.63
2023-02-03T08:35:10.369Z,1.62
2023-02-03T08:37:43.235Z,1.69
2023-02-03T08:40:16.842Z,1.66
2023-02-03T08:42:50.462Z,1.62
2023-02-03T08:45:23.420Z,1.65
2023-02-03T08:47:56.931Z,1.75
2023-02-03T08:50:30.221Z,1.87
2023-02-03T08:53:03.576Z,2.00
2023-02-03T08:55:36.514Z,2.16
2023-02-03T08:58:09.511Z,2.35
2023-02-03T09:00:42.816Z,2.55
2023-02-03T09:03:15.692Z,2.77
2023-02-03T09:05:48.870Z,2.96
2023-02-03T09:08:21.961Z,3.14
2023-02-03T09:10:55.817Z,3.28
2023-02-03T09:13:28.861Z,3.38
2023-02-03T09:16:02.950Z,3.40
2023-02-03T09:18:35.807Z,3.39
2023-02-03T09:21:23.894Z,3.44
2023-02-03T09:23:48.988Z,3.55
2023-02-03T09:26:22.537Z,3.65
2023-02-03T09:28:55.893Z,3.70
2023-02-03T09:31:28.824Z,3.70
2023-02-03T09:34:02.552Z,3.65
2023-02-03T09:36:36.346Z,3.62
2023-02-03T09:39:09.097Z,3.59
2023-02-03T09:42:14.724Z,3.56
2023-02-03T09:45:13.743Z,3.53
2023-02-03T09:47:48.550Z,3.46
2023-02-03T09:50:25.876Z,3.43
2023-02-03T09:53:00.836Z,3.41
2023-02-03T09:55:42.877Z,3.38
2023-02-03T09:58:21.483Z,3.36
2023-02-03T10:01:05.961Z,3.35
2023-02-03T10:04:16.620Z,3.32
2023-02-03T10:06:49.832Z,3.26
2023-02-03T10:10:05.858Z,3.19
2023-02-03T10:13:01.165Z,3.16
2023-02-03T10:15:59.755Z,3.09
2023-02-03T10:18:37.288Z,3.06
2023-02-03T10:21:38.954Z,3.05
2023-02-03T10:24:22.499Z,3.07
2023-02-03T10:26:56.771Z,3.07
2023-02-03T10:29:43.149Z,3.04
2023-02-03T10:32:16.678Z,3.07
2023-02-03T10:34:50.149Z,3.11
2023-02-03T10:37:33.063Z,3.10
2023-02-03T10:40:07.380Z,3.08
2023-02-03T10:42:59.638Z,3.08
2023-02-03T10:45:36.754Z,3.13
2023-02-03T10:48:14.317Z,3.17
2023-02-03T10:50:50.490Z,3.21
2023-02-03T10:53:32.316Z,3.21
2023-02-03T10:56:11.334Z,3.22
2023-02-03T10:58:56.913Z,3.23
2023-02-03T11:01:34.087Z,3.25
2023-02-03T11:04:10.202Z,3.29
2023-02-03T11:06:49.399Z,3.30
2023-02-03T11:09:37.785Z,3.35
2023-02-03T11:12:17.850Z,3.39
2023-02-03T11:14:53.555Z,3.44
2023-02-03T11:17:29.848Z,3.48
2023-02-03T11:20:07.732Z,3.56
2023-02-03T11:22:41.958Z,3.63
2023-02-03T11:25:27.132Z,3.68
2023-02-03T11:28:07.204Z,3.65
2023-02-03T11:30:40.518Z,3.68
2023-02-03T11:33:17.735Z,3.67
2023-02-03T11:36:00.435Z,3.67
2023-02-03T11:38:41.051Z,3.65
2023-02-03T11:41:23.964Z,3.62
2023-02-03T11:43:58.387Z,3.61
2023-02-03T11:46:31.690Z,3.58
2023-02-03T11:49:20.887Z,3.56
2023-02-03T11:52:07.394Z,3.55
2023-02-03T11:54:50.710Z,3.52
2023-02-03T11:57:52.572Z,3.49
2023-02-03T12:00:41.663Z,3.45
2023-02-03T12:03:41.882Z,3.40
2023-02-03T12:06:28.691Z,3.37
2023-02-03T12:09:36.041Z,3.36
2023-02-03T12:12:44.546Z,3.36
2023-02-03T12:15:49.210Z,3.34
2023-02-03T12:18:54.648Z,3.32
2023-02-03T12:21:41.665Z,3.26
2023-02-03T12:24:31.332Z,3.23
2023-02-03T12:27:38.369Z,3.22
2023-02-03T12:30:25.339Z,3.21
2023-02-03T12:33:02.510Z,3.19
2023-02-03T12:36:17.698Z,3.18
2023-02-03T12:39:03.677Z,3.19
2023-02-03T12:41:43.905Z,3.19
2023-02-03T12:44:24.343Z,3.17
2023-02-03T12:47:21.335Z,3.14
2023-02-03T12:49:59.037Z,3.10
2023-02-03T12:52:40.081Z,3.07
2023-02-03T12:55:35.185Z,3.03
2023-02-03T12:58:22.137Z,2.98
2023-02-03T13:01:18.339Z,2.94
2023-02-03T13:04:14.520Z,2.88
2023-02-03T13:07:10.075Z,2.82
2023-02-03T13:10:04.069Z,2.75
2023-02-03T13:12:45.440Z,2.66
2023-02-03T13:15:33.988Z,2.62
2023-02-03T13:18:29.843Z,2.57
2023-02-03T13:21:02.947Z,2.51
2023-02-03T13:23:36.266Z,2.45
2023-02-03T13:26:44.205Z,2.39
2023-02-03T13:29:36.283Z,2.32
2023-02-03T13:32:44.072Z,2.28
2023-02-03T13:35:45.264Z,2.26
2023-02-03T13:38:31.842Z,2.21
2023-02-03T13:41:14.947Z,2.16
2023-02-03T13:43:51.408Z,2.16
2023-02-03T13:46:31.886Z,2.15
2023-02-03T13:49:06.459Z,2.12
2023-02-03T13:51:46.490Z,2.08
2023-02-03T13:54:29.647Z,2.05
2023-02-03T13:57:07.467Z,2.03
2023-02-03T13:59:44.073Z,2.03
2023-02-03T14:02:24.680Z,2.05
2023-02-03T14:04:59.934Z,2.04
2023-02-03T14:07:39.708Z,2.04
2023-02-03T14:10:25.142Z,2.03
2023-02-03T14:13:00.370Z,1.99
2023-02-03T14:15:36.673Z,1.96
2023-02-03T14:18:36.537Z,1.92
2023-02-03T14:21:18.769Z,1.87
2023-02-03T14:24:00.919Z,1.80
2023-02-03T14:26:45.588Z,1.75
2023-02-03T14:29:36.880Z,1.69
2023-02-03T14:32:12.611Z,1.65
2023-02-03T14:34:50.135Z,1.60
2023-02-03T14:37:29.097Z,1.57
2023-02-03T14:40:35.367Z,1.50
2023-02-03T14:43:44.928Z,1.42
2023-02-03T14:46:40.213Z,1.33
2023-02-03T14:49:49.762Z,1.26
2023-02-03T14:52:45.379Z,1.20
2023-02-03T14:55:40.829Z,1.13
2023-02-03T14:58:35.395Z,1.04
2023-02-03T15:01:09.830Z,1.00
2023-02-03T15:03:44.341Z,0.97
2023-02-03T15:06:41.422Z,0.95
2023-02-03T15:09:43.507Z,0.93
2023-02-03T15:12:22.148Z,0.88
2023-02-03T15:14:58.104Z,0.86
2023-02-03T15:17:31.516Z,0.80
2023-02-03T15:20:10.545Z,0.76
2023-02-03T15:22:43.461Z,0.75
2023-02-03T15:25:19.532Z,0.71
2023-02-03T15:27:53.896Z,0.69
2023-02-03T15:30:30.136Z,0.67
2023-02-03T15:33:19.803Z,0.65
2023-02-03T15:35:57.002Z,0.64
2023-02-03T15:38:42.640Z,0.61
2023-02-03T15:41:22.675Z,0.59
2023-02-03T15:44:06.611Z,0.55
2023-02-03T15:46:44.841Z,0.52
2023-02-03T15:49:22.961Z,0.50
2023-02-03T15:52:00.322Z,0.45
2023-02-03T15:54:44.233Z,0.44
2023-02-03T15:57:28.047Z,0.40
2023-02-03T16:00:04.628Z,0.37
2023-02-03T16:02:46.238Z,0.34
2023-02-03T16:05:32.125Z,0.32
2023-02-03T16:08:35.283Z,0.29
2023-02-03T16:11:37.451Z,0.26
2023-02-03T16:14:16.301Z,0.23
2023-02-03T16:17:04.878Z,0.20
2023-02-03T16:19:33.287Z,0.16
2023-02-03T16:22:08.764Z,0.12
2023-02-03T16:24:46.431Z,0.09
2023-02-03T16:27:32.897Z,0.06
2023-02-03T16:30:34.299Z,0.00
2023-02-03T16:33:36.478Z,-0.03
2023-02-03T16:36:33.255Z,-0.05
2023-02-03T16:39:30.936Z,-0.08
2023-02-03T16:42:35.174Z,-0.12
2023-02-03T16:45:37.282Z,-0.16
2023-02-03T16:48:32.827Z,-0.20
2023-02-03T16:51:10.907Z,-0.21
2023-02-03T16:53:46.135Z,-0.21
2023-02-03T16:56:19.439Z,-0.22
2023-02-03T16:58:52.694Z,-0.22
2023-02-03T17:01:25.606Z,-0.23
2023-02-03T17:03:58.380Z,-0.24
2023-02-03T17:06:33.179Z,-0.21
2023-02-03T17:09:06.117Z,-0.21
2023-02-03T17:11:39.092Z,-0.22
2023-02-03T17:14:12.874Z,-0.22
2023-02-03T17:16:47.061Z,-0.25
2023-02-03T17:19:20.501Z,-0.27
2023-02-03T17:21:53.905Z,-0.26
2023-02-03T17:24:29.049Z,-0.24
2023-02-03T17:27:01.974Z,-0.25
2023-02-03T17:29:34.967Z,-0.24
2023-02-03T17:32:08.284Z,-0.23
2023-02-03T17:34:41.761Z,-0.23
2023-02-03T17:37:14.525Z,-0.22
2023-02-03T17:54:05.582Z,-0.30
2023-02-03T17:56:38.449Z,-0.33
2023-02-03T17:59:12.017Z,-0.37
2023-02-03T18:01:47.054Z,-0.37
2023-02-03T18:04:20.022Z,-0.40
2023-02-03T18:06:54.785Z,-0.44
2023-02-03T18:09:26.980Z,-0.46
2023-02-03T18:11:59.709Z,-0.50
2023-02-03T18:14:33.558Z,-0.53
2023-02-03T18:17:06.663Z,-0.58
2023-02-03T18:19:41.208Z,-0.60
2023-02-03T18:22:14.792Z,-0.63
2023-02-03T18:24:49.880Z,-0.66
2023-02-03T18:27:22.799Z,-0.67
2023-02-03T18:29:55.585Z,-0.68
2023-02-03T18:32:28.455Z,-0.69
2023-02-03T18:35:01.895Z,-0.70
2023-02-03T18:37:35.202Z,-0.68
2023-02-03T18:40:09.403Z,-0.69
2023-02-03T18:42:43.473Z,-0.68
2023-02-03T18:45:16.428Z,-0.68
2023-02-03T18:47:49.335Z,-0.69
2023-02-03T18:50:23.090Z,-0.69
2023-02-03T18:52:56.825Z,-0.67
2023-02-03T18:55:29.581Z,-0.67
2023-02-03T18:58:03.017Z,-0.70
2023-02-03T19:00:36.267Z,-0.71
2023-02-03T19:03:09.936Z,-0.68
2023-02-03T19:05:43.112Z,-0.61
2023-02-03T19:08:18.031Z,-0.58
2023-02-03T19:10:55.093Z,-0.55
2023-02-03T19:13:28.015Z,-0.52
2023-02-03T19:16:02.666Z,-0.53
2023-02-03T19:18:36.483Z,-0.48
2023-02-03T19:21:11.387Z,-0.40
2023-02-03T19:23:45.316Z,-0.31
2023-02-03T19:26:18.688Z,-0.25
2023-02-03T19:28:52.878Z,-0.24
2023-02-03T19:31:26.052Z,-0.26
2023-02-03T19:34:02.114Z,-0.25
2023-02-03T19:36:35.040Z,-0.21
2023-02-03T19:39:07.959Z,-0.17
2023-02-03T19:41:41.205Z,-0.13
2023-02-03T19:44:15.663Z,-0.10
2023-02-03T19:46:49.923Z,-0.08
2023-02-03T19:49:22.894Z,-0.09
2023-02-03T19:51:55.715Z,-0.09
2023-02-03T19:54:28.766Z,-0.10
2023-02-03T19:57:02.148Z,-0.10
2023-02-03T19:59:35.740Z,-0.12
2023-02-03T20:02:14.221Z,-0.11
2023-02-03T20:04:45.692Z,-0.09
2023-02-03T20:07:19.210Z,-0.02
2023-02-03T20:09:52.191Z,-0.02
2023-02-03T20:12:25.493Z,-0.03
2023-02-03T20:14:59.914Z,-0.03
2023-02-03T20:17:33.374Z,-0.05
2023-02-03T20:20:07.511Z,-0.06
2023-02-03T20:22:40.662Z,-0.07
2023-02-03T20:25:13.560Z,-0.06
2023-02-03T20:27:46.871Z,-0.05
2023-02-03T20:30:19.946Z,0.01
2023-02-03T20:32:54.495Z,0.00
2023-02-03T20:35:28.987Z,0.01
2023-02-03T20:38:02.141Z,0.05
2023-02-03T20:40:35.750Z,0.11
2023-02-03T20:43:25.225Z,0.17
2023-02-03T20:45:58.622Z,0.21
2023-02-03T20:48:31.440Z,0.24
2023-02-03T20:51:06.013Z,0.26
2023-02-03T20:53:40.026Z,0.26
2023-02-03T20:56:19.107Z,0.26
2023-02-03T20:58:51.942Z,0.32
2023-02-03T21:01:25.027Z,0.40
2023-02-03T21:04:15.581Z,0.46
2023-02-03T21:06:48.435Z,0.50
2023-02-03T21:09:22.732Z,0.49
2023-02-03T21:11:56.896Z,0.51
2023-02-03T21:14:39.810Z,0.53
2023-02-03T21:17:26.165Z,0.56
2023-02-03T21:19:59.053Z,0.56
2023-02-03T21:22:33.799Z,0.53
2023-02-03T21:25:14.960Z,0.54
2023-02-03T21:27:48.484Z,0.57
2023-02-03T21:30:31.116Z,0.59
2023-02-03T21:33:17.860Z,0.58
2023-02-03T21:35:50.919Z,0.55
2023-02-03T21:38:33.315Z,0.54
2023-02-03T21:41:13.873Z,0.59
2023-02-03T21:43:49.489Z,0.62
2023-02-03T21:46:28.805Z,0.66
2023-02-03T21:49:03.672Z,0.69
2023-02-03T21:51:40.153Z,0.70
2023-02-03T21:54:31.528Z,0.67
2023-02-03T21:57:06.146Z,0.64
2023-02-03T21:59:44.288Z,0.61
2023-02-03T22:02:42.634Z,0.57
2023-02-03T22:05:19.271Z,0.52
2023-02-03T22:07:55.011Z,0.53
2023-02-03T22:10:28.112Z,0.57
2023-02-03T22:13:01.081Z,0.56
2023-02-03T22:15:33.939Z,0.58
2023-02-03T22:18:07.331Z,0.58
2023-02-03T22:20:40.868Z,0.58
2023-02-03T22:23:13.696Z,0.62
2023-02-03T22:25:47.408Z,0.64
2023-02-03T22:28:20.354Z,0.64
2023-02-03T22:30:55.203Z,0.62
2023-02-03T22:33:28.201Z,0.60
2023-02-03T22:36:01.077Z,0.58
2023-02-03T22:38:35.803Z,0.56
2023-02-03T22:41:12.514Z,0.56
2023-02-03T22:43:45.242Z,0.58
2023-02-03T22:46:18.193Z,0.58
2023-02-03T22:48:51.133Z,0.60
2023-02-03T22:51:24.080Z,0.64
2023-02-03T22:53:56.768Z,0.65
2023-02-03T22:56:30.297Z,0.66
2023-02-03T22:59:03.146Z,0.66
2023-02-03T23:01:36.837Z,0.65
2023-02-03T23:04:09.580Z,0.63
2023-02-03T23:06:42.834Z,0.63
2023-02-03T23:09:16.050Z,0.64
2023-02-03T23:11:49.492Z,0.68
2023-02-03T23:14:22.526Z,0.69
2023-02-03T23:16:55.845Z,0.74
2023-02-03T23:19:28.900Z,0.80
2023-02-03T23:22:01.933Z,0.83
2023-02-03T23:24:34.881Z,0.84
2023-02-03T23:27:08.983Z,0.88
2023-02-03T23:29:43.243Z,0.92
2023-02-03T23:32:15.069Z,0.93
2023-02-03T23:35:05.528Z,0.89
2023-02-03T23:37:38.758Z,0.85
2023-02-03T23:40:12.975Z,0.86
2023-02-03T23:42:44.893Z,0.90
2023-02-03T23:45:17.570Z,0.93
2023-02-03T23:47:51.111Z,0.94
2023-02-03T23:50:24.201Z,0.94
2023-02-03T23:52:57.109Z,0.94
2023-02-03T23:55:31.535Z,0.90
2023-02-03T23:58:05.210Z,0.85
